createdAt,value
2018-04-23T00:00:32.253Z,22.40
2018-04-23T00:02:59.809Z,22.60
2018-04-23T00:05:27.249Z,22.70
2018-04-23T00:07:55.441Z,22.80
2018-04-23T00:10:22.875Z,22.80
2018-04-23T00:12:50.304Z,22.70
2018-04-23T00:15:17.763Z,22.70
2018-04-23T00:17:45.179Z,22.70
2018-04-23T00:20:12.631Z,22.60
2018-04-23T00:22:40.103Z,22.60
2018-04-23T00:25:07.551Z,22.60
2018-04-23T00:27:35.004Z,22.60
2018-04-23T00:30:02.430Z,22.60
2018-04-23T00:32:29.881Z,22.40
2018-04-23T00:34:59.024Z,22.70
2018-04-23T00:37:26.461Z,22.70
2018-04-23T00:39:53.900Z,22.50
2018-04-23T00:42:22.102Z,20.80
2018-04-23T00:44:49.535Z,20.70
2018-04-23T00:47:16.979Z,19.90
2018-04-23T00:49:45.195Z,20.10
2018-04-23T00:52:12.623Z,20.00
2018-04-23T00:54:40.840Z,19.90
2018-04-23T00:57:08.283Z,19.90
2018-04-23T00:59:35.715Z,20.00
2018-04-23T01:02:03.203Z,20.00
2018-04-23T01:04:30.612Z,19.90
2018-04-23T01:06:58.864Z,19.90
2018-04-23T01:09:26.306Z,19.90
2018-04-23T01:11:54.683Z,19.80
2018-04-23T01:14:22.124Z,19.70
2018-04-23T01:16:49.562Z,20.10
2018-04-23T01:19:17.034Z,20.20
2018-04-23T01:21:44.459Z,20.50
2018-04-23T01:24:12.695Z,20.60
2018-04-23T01:26:40.164Z,20.60
2018-04-23T01:29:07.593Z,20.60
2018-04-23T01:31:35.033Z,20.80
2018-04-23T01:34:02.471Z,20.90
2018-04-23T01:36:30.679Z,20.80
2018-04-23T01:38:59.030Z,20.80
2018-04-23T01:41:27.236Z,20.70
2018-04-23T01:43:54.677Z,20.70
2018-04-23T01:46:22.117Z,20.50
2018-04-23T01:48:50.358Z,20.60
2018-04-23T01:51:17.787Z,20.60
2018-04-23T01:53:45.233Z,20.70
2018-04-23T01:56:12.667Z,20.70
2018-04-23T01:58:40.118Z,20.60
2018-04-23T02:01:08.331Z,20.10
2018-04-23T02:03:35.767Z,20.10
2018-04-23T02:06:03.203Z,20.00
2018-04-23T02:08:31.414Z,20.20
2018-04-23T02:10:58.991Z,20.20
2018-04-23T02:13:26.420Z,20.10
2018-04-23T02:15:53.892Z,20.20
2018-04-23T02:18:21.338Z,20.10
2018-04-23T02:20:48.763Z,20.10
2018-04-23T02:23:16.985Z,19.50
2018-04-23T02:25:44.411Z,19.50
2018-04-23T02:28:12.605Z,19.40
2018-04-23T02:30:40.047Z,19.40
2018-04-23T02:33:08.248Z,19.70
2018-04-23T02:35:35.681Z,19.70
2018-04-23T02:38:03.884Z,19.80
2018-04-23T02:40:31.326Z,19.80
2018-04-23T02:42:59.068Z,19.90
2018-04-23T02:45:27.278Z,20.00
2018-04-23T02:47:54.724Z,20.00
2018-04-23T02:50:22.158Z,19.80
2018-04-23T02:52:50.368Z,20.00
2018-04-23T02:55:17.783Z,20.00
2018-04-23T02:57:46.012Z,19.80
2018-04-23T03:00:13.461Z,19.80
2018-04-23T03:02:40.945Z,20.10
2018-04-23T03:05:08.352Z,20.20
2018-04-23T03:07:36.560Z,20.10
2018-04-23T03:10:04.015Z,20.10
2018-04-23T03:12:31.456Z,20.10
2018-04-23T03:14:59.196Z,20.10
2018-04-23T03:17:27.412Z,20.20
2018-04-23T03:19:54.862Z,20.10
2018-04-23T03:22:22.322Z,20.10
2018-04-23T03:24:49.777Z,19.80
2018-04-23T03:27:17.215Z,19.90
2018-04-23T03:29:44.712Z,19.90
2018-04-23T03:32:12.152Z,19.80
2018-04-23T03:34:39.583Z,19.70
2018-04-23T03:37:07.053Z,20.10
2018-04-23T03:39:35.239Z,20.10
2018-04-23T03:42:02.663Z,20.10
2018-04-23T03:44:30.122Z,20.00
2018-04-23T03:46:57.527Z,19.90
2018-04-23T03:49:24.967Z,19.60
2018-04-23T03:51:52.439Z,19.90
2018-04-23T03:54:19.859Z,20.00
2018-04-23T03:56:47.291Z,19.70
2018-04-23T03:59:14.758Z,19.60
2018-04-23T04:01:42.963Z,20.00
2018-04-23T04:04:10.387Z,20.00
2018-04-23T04:06:38.591Z,19.60
2018-04-23T04:09:06.051Z,19.60
2018-04-23T04:11:33.480Z,19.70
2018-04-23T04:14:13.427Z,19.80
2018-04-23T04:16:52.715Z,19.80
2018-04-23T04:19:20.108Z,19.60
2018-04-23T04:21:47.539Z,19.60
2018-04-23T04:24:14.992Z,19.90
2018-04-23T04:26:42.420Z,20.10
2018-04-23T04:29:09.862Z,19.90
2018-04-23T04:31:38.067Z,20.30
2018-04-23T04:34:05.525Z,20.20
2018-04-23T04:36:32.975Z,20.20
2018-04-23T04:39:00.417Z,20.20
2018-04-23T04:41:27.847Z,20.20
2018-04-23T04:43:56.123Z,20.20
2018-04-23T04:46:23.593Z,20.10
2018-04-23T04:48:51.808Z,20.40
2018-04-23T04:51:19.302Z,20.40
2018-04-23T04:53:46.705Z,20.50
2018-04-23T04:56:14.132Z,20.60
2018-04-23T04:58:42.357Z,20.60
2018-04-23T05:01:09.814Z,20.60
2018-04-23T05:03:37.254Z,20.50
2018-04-23T05:06:04.722Z,20.20
2018-04-23T05:08:32.581Z,20.10
2018-04-23T05:11:00.017Z,20.10
2018-04-23T05:13:28.225Z,20.30
2018-04-23T05:15:55.660Z,20.20
2018-04-23T05:18:23.103Z,20.40
2018-04-23T05:20:51.315Z,20.40
2018-04-23T05:23:18.752Z,20.40
2018-04-23T05:25:46.187Z,20.30
2018-04-23T05:28:14.400Z,20.40
2018-04-23T05:30:41.851Z,20.40
2018-04-23T05:33:09.355Z,20.40
2018-04-23T05:35:36.798Z,20.40
2018-04-23T05:38:04.392Z,20.40
2018-04-23T05:40:31.807Z,20.60
2018-04-23T05:42:59.536Z,20.40
2018-04-23T05:45:27.747Z,20.30
2018-04-23T05:47:55.197Z,20.30
2018-04-23T05:50:22.636Z,20.20
2018-04-23T05:52:50.055Z,20.20
2018-04-23T05:55:17.504Z,20.30
2018-04-23T05:57:44.923Z,20.40
2018-04-23T06:00:12.374Z,20.50
2018-04-23T06:02:39.831Z,20.10
2018-04-23T06:05:07.278Z,20.40
2018-04-23T06:07:34.716Z,20.60
2018-04-23T06:10:02.916Z,20.40
2018-04-23T06:12:30.384Z,20.40
2018-04-23T06:14:57.829Z,20.10
2018-04-23T06:17:26.133Z,20.10
2018-04-23T06:19:53.576Z,20.10
2018-04-23T06:22:21.020Z,20.00
2018-04-23T06:24:48.447Z,19.80
2018-04-23T06:27:16.652Z,20.40
2018-04-23T06:29:44.096Z,20.40
2018-04-23T06:32:11.546Z,21.00
2018-04-23T06:34:39.760Z,21.20
2018-04-23T06:37:07.212Z,21.20
2018-04-23T06:39:34.678Z,21.10
2018-04-23T06:42:02.099Z,21.20
2018-04-23T06:44:30.303Z,20.60
2018-04-23T06:46:57.736Z,20.50
2018-04-23T06:49:26.007Z,20.40
2018-04-23T06:51:54.207Z,20.70
2018-04-23T06:54:21.635Z,20.70
2018-04-23T06:56:49.826Z,21.00
2018-04-23T06:59:17.272Z,21.00
2018-04-23T07:01:45.501Z,20.60
2018-04-23T07:04:12.931Z,20.50
2018-04-23T07:06:40.360Z,20.80
2018-04-23T07:09:08.571Z,21.20
2018-04-23T07:11:35.994Z,21.10
2018-04-23T07:14:04.204Z,22.00
2018-04-23T07:16:31.705Z,22.00
2018-04-23T07:18:59.634Z,21.60
2018-04-23T07:21:27.076Z,21.60
2018-04-23T07:23:54.506Z,21.30
2018-04-23T07:26:22.701Z,20.90
2018-04-23T07:28:50.150Z,20.90
2018-04-23T07:31:18.348Z,20.70
2018-04-23T07:33:45.814Z,20.70
2018-04-23T07:36:13.297Z,19.80
2018-04-23T07:38:40.740Z,19.80
2018-04-23T07:41:08.180Z,19.80
2018-04-23T07:43:35.610Z,19.60
2018-04-23T07:46:03.078Z,19.40
2018-04-23T07:48:30.515Z,18.90
2018-04-23T07:50:59.642Z,20.20
2018-04-23T07:53:27.105Z,20.20
2018-04-23T07:55:54.534Z,20.80
2018-04-23T07:58:22.739Z,21.50
2018-04-23T08:00:50.169Z,21.50
2018-04-23T08:03:18.359Z,22.30
2018-04-23T08:05:45.799Z,22.30
2018-04-23T08:08:13.991Z,23.00
2018-04-23T08:10:41.437Z,23.00
2018-04-23T08:13:09.620Z,23.80
2018-04-23T08:15:37.060Z,23.70
2018-04-23T08:18:05.250Z,23.50
2018-04-23T08:20:32.691Z,23.50
2018-04-23T08:23:00.897Z,23.80
2018-04-23T08:25:28.355Z,23.80
2018-04-23T08:27:55.772Z,24.20
2018-04-23T08:30:23.992Z,24.30
2018-04-23T08:32:51.413Z,24.30
2018-04-23T08:35:19.611Z,24.70
2018-04-23T08:37:47.128Z,24.60
2018-04-23T08:40:14.555Z,25.00
2018-04-23T08:42:41.996Z,25.50
2018-04-23T08:45:09.440Z,25.20
2018-04-23T08:47:37.170Z,25.60
2018-04-23T08:50:04.605Z,27.10
2018-04-23T08:52:32.038Z,27.80
2018-04-23T08:54:59.828Z,29.00
2018-04-23T08:57:27.320Z,28.80
2018-04-23T08:59:55.579Z,30.80
2018-04-23T09:02:22.947Z,30.70
2018-04-23T09:04:51.156Z,32.50
2018-04-23T09:07:18.706Z,32.40
2018-04-23T09:09:46.174Z,32.00
2018-04-23T09:12:13.617Z,32.30
2018-04-23T09:14:41.818Z,31.30
2018-04-23T09:17:09.247Z,31.30
2018-04-23T09:19:36.671Z,31.80
2018-04-23T09:22:04.112Z,32.20
2018-04-23T09:24:31.552Z,32.40
2018-04-23T09:26:59.921Z,31.90
2018-04-23T09:29:27.408Z,31.70
2018-04-23T09:31:54.836Z,30.60
2018-04-23T09:34:22.295Z,31.40
2018-04-23T09:36:49.755Z,31.20
2018-04-23T09:39:17.177Z,29.80
2018-04-23T09:41:45.389Z,27.20
2018-04-23T09:44:12.829Z,27.20
2018-04-23T09:46:40.262Z,27.30
2018-04-23T09:49:08.459Z,26.30
2018-04-23T09:51:35.920Z,26.30
2018-04-23T09:54:04.091Z,25.00
2018-04-23T09:56:31.531Z,24.90
2018-04-23T09:59:00.653Z,23.90
2018-04-23T10:01:29.111Z,23.90
2018-04-23T10:04:02.942Z,26.10
2018-04-23T10:06:30.386Z,26.00
2018-04-23T10:08:57.826Z,27.50
2018-04-23T10:11:25.252Z,28.50
2018-04-23T10:13:52.679Z,30.20
2018-04-23T10:16:20.147Z,29.90
2018-04-23T10:18:47.627Z,28.30
2018-04-23T10:21:15.086Z,26.60
2018-04-23T10:23:42.512Z,27.20
2018-04-23T10:26:09.985Z,27.70
2018-04-23T10:28:37.407Z,29.20
2018-04-23T10:31:05.420Z,31.20
2018-04-23T10:33:32.853Z,30.80
2018-04-23T10:36:00.288Z,28.20
2018-04-23T10:38:27.823Z,27.90
2018-04-23T10:40:55.252Z,28.40
2018-04-23T10:43:22.686Z,30.60
2018-04-23T10:45:50.132Z,30.60
2018-04-23T10:48:17.594Z,31.60
2018-04-23T10:50:45.030Z,32.70
2018-04-23T10:53:13.240Z,34.70
2018-04-23T10:55:40.663Z,34.70
2018-04-23T10:58:08.160Z,35.10
2018-04-23T11:00:35.594Z,34.50
2018-04-23T11:03:03.039Z,32.70
2018-04-23T11:05:30.471Z,30.80
2018-04-23T11:07:57.925Z,29.30
2018-04-23T11:10:25.364Z,29.00
2018-04-23T11:12:52.820Z,29.30
2018-04-23T11:15:20.253Z,28.50
2018-04-23T11:17:47.694Z,28.10
2018-04-23T11:20:15.164Z,28.30
2018-04-23T11:22:42.576Z,27.80
2018-04-23T11:25:10.798Z,27.90
2018-04-23T11:27:38.236Z,27.80
2018-04-23T11:30:05.670Z,27.30
2018-04-23T11:32:33.153Z,26.20
2018-04-23T11:35:00.531Z,25.90
2018-04-23T11:37:27.977Z,26.00
2018-04-23T11:39:55.400Z,25.40
2018-04-23T11:42:23.615Z,24.90
2018-04-23T11:44:51.039Z,24.90
2018-04-23T11:47:19.247Z,25.00
2018-04-23T11:49:46.735Z,25.00
2018-04-23T11:52:14.202Z,24.90
2018-04-23T11:54:42.403Z,24.90
2018-04-23T11:57:10.661Z,24.70
2018-04-23T11:59:38.079Z,24.70
2018-04-23T12:02:05.549Z,25.40
2018-04-23T12:04:33.077Z,25.70
2018-04-23T12:07:01.468Z,26.20
2018-04-23T12:09:28.927Z,26.90
2018-04-23T12:11:56.374Z,27.30
2018-04-23T12:14:23.805Z,27.40
2018-04-23T12:16:52.019Z,27.70
2018-04-23T12:19:19.460Z,27.70
2018-04-23T12:21:46.936Z,27.90
2018-04-23T12:24:15.091Z,27.80
2018-04-23T12:26:42.533Z,27.80
2018-04-23T12:29:10.740Z,27.80
2018-04-23T12:31:38.170Z,27.70
2018-04-23T12:34:06.367Z,27.70
2018-04-23T12:36:33.806Z,27.70
2018-04-23T12:39:01.245Z,27.40
2018-04-23T12:41:29.463Z,27.70
2018-04-23T12:43:56.921Z,27.70
2018-04-23T12:46:24.331Z,27.80
2018-04-23T12:48:51.760Z,28.10
2018-04-23T12:51:19.208Z,28.20
2018-04-23T12:53:46.659Z,27.80
2018-04-23T12:56:14.168Z,27.40
2018-04-23T12:58:41.590Z,26.70
2018-04-23T13:01:09.045Z,26.70
2018-04-23T13:03:36.496Z,26.70
2018-04-23T13:06:03.989Z,26.30
2018-04-23T13:08:31.411Z,26.40
2018-04-23T13:10:58.858Z,25.90
2018-04-23T13:13:26.291Z,26.20
2018-04-23T13:15:53.800Z,26.50
2018-04-23T13:18:21.262Z,27.00
2018-04-23T13:20:48.664Z,27.00
2018-04-23T13:23:16.097Z,27.10
2018-04-23T13:25:44.286Z,26.60
2018-04-23T13:28:11.741Z,26.60
2018-04-23T13:30:39.981Z,25.40
2018-04-23T13:33:07.415Z,25.40
2018-04-23T13:35:34.846Z,25.80
2018-04-23T13:38:02.295Z,26.20
2018-04-23T13:40:30.496Z,26.10
2018-04-23T13:42:57.948Z,26.10
2018-04-23T13:45:25.388Z,25.90
2018-04-23T13:47:52.819Z,26.00
2018-04-23T13:50:20.258Z,26.30
2018-04-23T13:52:47.679Z,26.60
2018-04-23T13:55:15.123Z,26.40
2018-04-23T13:57:42.556Z,26.20
2018-04-23T14:00:10.757Z,26.40
2018-04-23T14:02:38.248Z,26.40
2018-04-23T14:05:05.706Z,26.40
2018-04-23T14:07:33.134Z,26.00
2018-04-23T14:10:00.622Z,26.50
2018-04-23T14:12:28.073Z,26.90
2018-04-23T14:14:55.540Z,27.10
2018-04-23T14:17:22.969Z,26.80
2018-04-23T14:19:50.524Z,27.00
2018-04-23T14:22:17.951Z,26.50
2018-04-23T14:24:46.151Z,26.50
2018-04-23T14:27:13.644Z,26.40
2018-04-23T14:29:41.077Z,26.10
2018-04-23T14:32:08.590Z,25.50
2018-04-23T14:34:36.114Z,25.60
2018-04-23T14:37:03.581Z,26.10
2018-04-23T14:39:31.044Z,25.80
2018-04-23T14:41:58.483Z,25.40
2018-04-23T14:44:25.948Z,25.10
2018-04-23T14:46:53.405Z,24.70
2018-04-23T14:49:20.831Z,24.70
2018-04-23T14:51:49.100Z,25.20
2018-04-23T14:54:16.543Z,25.30
2018-04-23T14:56:43.971Z,25.50
2018-04-23T14:59:11.408Z,24.80
2018-04-23T15:01:38.855Z,24.80
2018-04-23T15:04:06.327Z,25.10
2018-04-23T15:06:33.798Z,24.90
2018-04-23T15:09:01.226Z,25.40
2018-04-23T15:11:28.677Z,25.60
2018-04-23T15:13:56.138Z,25.60
2018-04-23T15:16:23.568Z,25.60
2018-04-23T15:18:51.770Z,25.60
2018-04-23T15:21:19.207Z,25.60
2018-04-23T15:23:46.641Z,25.00
2018-04-23T15:26:14.071Z,24.50
2018-04-23T15:28:42.262Z,24.90
2018-04-23T15:31:09.791Z,24.90
2018-04-23T15:33:37.235Z,24.10
2018-04-23T15:36:04.674Z,24.20
2018-04-23T15:38:32.113Z,24.10
2018-04-23T15:41:01.276Z,23.60
2018-04-23T15:43:28.689Z,23.50
2018-04-23T15:45:56.174Z,24.10
2018-04-23T15:48:23.613Z,24.40
2018-04-23T15:50:51.051Z,24.10
2018-04-23T15:53:18.496Z,24.40
2018-04-23T15:55:46.704Z,24.10
2018-04-23T15:58:14.136Z,24.10
2018-04-23T16:00:42.331Z,24.00
2018-04-23T16:03:09.773Z,24.00
2018-04-23T16:05:37.266Z,23.80
2018-04-23T16:08:04.716Z,24.00
2018-04-23T16:10:32.144Z,24.20
2018-04-23T16:13:01.267Z,24.40
2018-04-23T16:15:28.695Z,24.40
2018-04-23T16:17:56.904Z,24.20
2018-04-23T16:20:24.319Z,24.20
2018-04-23T16:22:52.524Z,24.20
2018-04-23T16:25:19.951Z,24.20
2018-04-23T16:27:48.165Z,24.00
2018-04-23T16:30:15.598Z,24.00
2018-04-23T16:32:43.792Z,23.60
2018-04-23T16:35:11.290Z,23.60
2018-04-23T16:37:38.744Z,23.40
2018-04-23T16:40:06.159Z,23.40
2018-04-23T16:42:33.593Z,23.60
2018-04-23T16:45:01.802Z,23.90
2018-04-23T16:47:29.231Z,23.90
2018-04-23T16:49:57.439Z,23.30
2018-04-23T16:52:24.874Z,23.30
2018-04-23T16:54:52.311Z,23.00
2018-04-23T16:57:20.499Z,22.70
2018-04-23T16:59:47.953Z,22.70
2018-04-23T17:02:16.157Z,22.80
2018-04-23T17:04:43.601Z,22.80
2018-04-23T17:07:11.040Z,22.60
2018-04-23T17:09:39.244Z,22.50
2018-04-23T17:12:06.673Z,22.40
2018-04-23T17:14:34.867Z,23.10
2018-04-23T17:17:02.344Z,23.10
2018-04-23T17:19:29.793Z,23.30
2018-04-23T17:21:57.227Z,23.10
2018-04-23T17:24:24.692Z,22.90
2018-04-23T17:26:52.886Z,22.70
2018-04-23T17:29:20.315Z,22.70
2018-04-23T17:31:48.519Z,22.20
2018-04-23T17:34:15.975Z,22.20
2018-04-23T17:36:43.417Z,22.40
2018-04-23T17:39:10.848Z,22.30
2018-04-23T17:41:39.072Z,22.10
2018-04-23T17:44:06.516Z,22.10
2018-04-23T17:46:33.963Z,22.40
2018-04-23T17:49:01.395Z,22.50
2018-04-23T17:51:28.836Z,22.60
2018-04-23T17:53:56.271Z,22.20
2018-04-23T17:56:23.739Z,22.00
2018-04-23T17:58:51.195Z,21.70
2018-04-23T18:01:18.614Z,21.40
2018-04-23T18:03:46.045Z,21.40
2018-04-23T18:06:14.259Z,21.80
2018-04-23T18:08:41.679Z,21.70
2018-04-23T18:11:09.912Z,22.00
2018-04-23T18:13:37.327Z,22.00
2018-04-23T18:16:05.581Z,21.70
2018-04-23T18:18:34.590Z,21.40
2018-04-23T18:21:02.793Z,21.30
2018-04-23T18:23:30.235Z,21.20
2018-04-23T18:25:57.692Z,21.30
2018-04-23T18:28:25.797Z,21.30
2018-04-23T18:30:53.219Z,21.30
2018-04-23T18:33:20.660Z,21.30
2018-04-23T18:35:48.856Z,21.30
2018-04-23T18:38:16.310Z,21.30
2018-04-23T18:40:43.752Z,21.20
2018-04-23T18:43:11.972Z,21.00
2018-04-23T18:45:39.437Z,21.00
2018-04-23T18:48:06.899Z,21.00
2018-04-23T18:50:34.356Z,21.00
2018-04-23T18:53:01.773Z,21.00
2018-04-23T18:55:30.014Z,21.10
2018-04-23T18:57:57.407Z,21.10
2018-04-23T19:00:24.843Z,21.10
2018-04-23T19:02:53.099Z,20.80
2018-04-23T19:05:20.535Z,20.80
2018-04-23T19:07:47.973Z,20.80
2018-04-23T19:10:15.392Z,20.80
2018-04-23T19:12:43.592Z,20.60
2018-04-23T19:15:11.034Z,20.50
2018-04-23T19:17:39.261Z,20.60
2018-04-23T19:20:07.465Z,20.50
2018-04-23T19:22:34.906Z,20.50
2018-04-23T19:25:02.341Z,20.40
2018-04-23T19:27:29.770Z,20.50
2018-04-23T19:29:57.196Z,20.30
2018-04-23T19:32:24.648Z,20.20
2018-04-23T19:34:52.067Z,20.30
2018-04-23T19:37:19.572Z,20.10
2018-04-23T19:39:47.011Z,20.10
2018-04-23T19:42:14.439Z,20.10
2018-04-23T19:44:41.884Z,20.00
2018-04-23T19:47:09.319Z,19.90
2018-04-23T19:49:36.747Z,19.70
2018-04-23T19:52:04.180Z,19.70
2018-04-23T19:54:31.633Z,19.60
2018-04-23T19:56:59.068Z,19.60
2018-04-23T19:59:26.513Z,19.50
2018-04-23T20:01:53.937Z,19.40
2018-04-23T20:04:21.361Z,19.40
2018-04-23T20:06:48.854Z,19.40
2018-04-23T20:09:16.239Z,19.30
2018-04-23T20:11:43.666Z,19.30
2018-04-23T20:14:11.257Z,19.30
2018-04-23T20:16:39.440Z,19.40
2018-04-23T20:19:06.879Z,19.30
2018-04-23T20:21:35.067Z,19.30
2018-04-23T20:24:02.508Z,19.20
2018-04-23T20:26:30.691Z,19.30
2018-04-23T20:28:58.135Z,19.30
2018-04-23T20:31:26.338Z,19.20
2018-04-23T20:33:53.783Z,19.20
2018-04-23T20:36:21.223Z,19.20
2018-04-23T20:38:49.427Z,19.20
2018-04-23T20:41:16.870Z,19.10
2018-04-23T20:43:44.334Z,19.10
2018-04-23T20:46:12.544Z,19.00
2018-04-23T20:48:39.961Z,19.00
2018-04-23T20:51:07.408Z,18.90
2018-04-23T20:53:34.882Z,18.80
2018-04-23T20:56:02.327Z,18.80
2018-04-23T20:58:30.514Z,18.50
2018-04-23T21:00:57.961Z,18.50
2018-04-23T21:03:26.175Z,18.50
2018-04-23T21:05:53.662Z,18.50
2018-04-23T21:08:21.095Z,18.60
2018-04-23T21:10:48.543Z,18.40
2018-04-23T21:13:15.976Z,18.50
2018-04-23T21:15:43.407Z,18.50
2018-04-23T21:18:10.831Z,18.50
2018-04-23T21:20:38.276Z,18.40
2018-04-23T21:23:05.726Z,19.30
2018-04-23T21:25:33.172Z,18.20
2018-04-23T21:28:01.399Z,18.20
2018-04-23T21:30:28.847Z,18.00
2018-04-23T21:32:56.315Z,18.00
2018-04-23T21:35:23.759Z,18.10
2018-04-23T21:37:51.196Z,18.20
2018-04-23T21:40:18.657Z,18.10
2018-04-23T21:42:46.098Z,18.10
2018-04-23T21:45:13.566Z,18.10
2018-04-23T21:47:40.970Z,18.10
2018-04-23T21:50:08.420Z,18.10
2018-04-23T21:52:35.844Z,18.10
2018-04-23T21:55:03.291Z,18.10
2018-04-23T21:57:30.788Z,18.20
2018-04-23T21:59:58.242Z,18.20
2018-04-23T22:02:25.681Z,18.20
2018-04-23T22:04:53.305Z,18.20
2018-04-23T22:07:21.504Z,17.90
2018-04-23T22:09:48.949Z,17.90
2018-04-23T22:12:16.379Z,18.00
2018-04-23T22:14:44.582Z,17.90
2018-04-23T22:17:12.014Z,17.90
2018-04-23T22:19:40.227Z,17.90
2018-04-23T22:22:07.664Z,17.90
2018-04-23T22:24:35.091Z,18.00
2018-04-23T22:27:03.297Z,17.90
2018-04-23T22:29:30.743Z,17.90
2018-04-23T22:31:58.937Z,17.60
2018-04-23T22:34:26.371Z,17.60
2018-04-23T22:36:54.568Z,17.30
2018-04-23T22:39:22.016Z,17.30
2018-04-23T22:41:49.471Z,17.20
2018-04-23T22:44:17.676Z,17.10
2018-04-23T22:46:45.128Z,17.10
2018-04-23T22:49:13.481Z,17.00
2018-04-23T22:51:40.940Z,16.90
2018-04-23T22:54:09.140Z,16.80
2018-04-23T22:56:36.583Z,16.80
2018-04-23T22:59:04.036Z,17.00
2018-04-23T23:01:31.478Z,17.10
2018-04-23T23:03:59.695Z,17.00
2018-04-23T23:06:27.133Z,17.00
2018-04-23T23:08:54.604Z,17.00
2018-04-23T23:11:22.042Z,17.10
2018-04-23T23:13:49.487Z,16.80
2018-04-23T23:16:16.939Z,16.70
2018-04-23T23:18:45.156Z,16.90
2018-04-23T23:21:12.607Z,16.90
2018-04-23T23:23:40.038Z,17.00
2018-04-23T23:26:07.471Z,16.90
2018-04-23T23:28:34.895Z,16.90
2018-04-23T23:31:02.336Z,17.00
2018-04-23T23:33:29.786Z,16.90
2018-04-23T23:35:57.228Z,16.70
2018-04-23T23:38:24.666Z,16.40
2018-04-23T23:40:52.112Z,16.40
2018-04-23T23:43:19.547Z,16.40
2018-04-23T23:45:47.000Z,16.40
2018-04-23T23:48:14.418Z,16.20
2018-04-23T23:50:41.865Z,16.00
2018-04-23T23:53:10.057Z,16.30
2018-04-23T23:55:37.499Z,16.30
2018-04-23T23:58:04.943Z,16.30
